createdAt,value
2018-07-14T00:00:19.445Z,101417.36
2018-07-14T00:02:46.461Z,101417.81
2018-07-14T00:05:13.516Z,101421.05
2018-07-14T00:07:40.628Z,101418.16
2018-07-14T00:10:07.797Z,101416.31
2018-07-14T00:12:34.852Z,101422.27
2018-07-14T00:15:01.987Z,101415.06
2018-07-14T00:17:28.992Z,101409.47
2018-07-14T00:19:56.016Z,101406.95
2018-07-14T00:22:23.066Z,101402.66
2018-07-14T00:24:50.119Z,101407.22
2018-07-14T00:27:17.121Z,101406.62
2018-07-14T00:29:48.655Z,101405.69
2018-07-14T00:32:15.789Z,101401.12
2018-07-14T00:34:42.840Z,101404.04
2018-07-14T00:37:09.940Z,101407.90
2018-07-14T00:39:37.024Z,101404.83
2018-07-14T00:42:04.107Z,101400.64
2018-07-14T00:44:31.200Z,101398.98
2018-07-14T00:46:58.313Z,101402.55
2018-07-14T00:49:25.324Z,101405.28
2018-07-14T00:51:52.364Z,101406.73
2018-07-14T00:54:19.356Z,101404.77
2018-07-14T00:56:46.414Z,101402.66
2018-07-14T00:59:13.450Z,101405.44
2018-07-14T01:01:40.524Z,101398.05
2018-07-14T01:04:07.510Z,101400.89
2018-07-14T01:06:34.581Z,101394.75
2018-07-14T01:09:01.577Z,101395.70
2018-07-14T01:11:28.596Z,101388.34
2018-07-14T01:13:55.606Z,101390.72
2018-07-14T01:16:22.605Z,101396.61
2018-07-14T01:18:49.625Z,101391.88
2018-07-14T01:21:16.647Z,101390.39
2018-07-14T01:23:43.728Z,101390.33
2018-07-14T01:26:10.825Z,101388.88
2018-07-14T01:28:37.937Z,101391.18
2018-07-14T01:31:05.064Z,101389.29
2018-07-14T01:33:32.137Z,101388.23
2018-07-14T01:35:59.260Z,101383.89
2018-07-14T01:38:26.280Z,101389.59
2018-07-14T01:40:53.384Z,101393.70
2018-07-14T01:43:20.539Z,101386.48
2018-07-14T01:45:47.556Z,101385.26
2018-07-14T01:48:14.583Z,101383.34
2018-07-14T01:50:41.618Z,101383.84
2018-07-14T01:53:08.596Z,101382.67
2018-07-14T01:55:35.629Z,101384.73
2018-07-14T01:58:02.717Z,101384.14
2018-07-14T02:00:29.918Z,101388.30
2018-07-14T02:02:57.034Z,101390.25
2018-07-14T02:05:24.068Z,101390.77
2018-07-14T02:07:51.113Z,101393.25
2018-07-14T02:10:18.181Z,101390.81
2018-07-14T02:12:45.185Z,101399.39
2018-07-14T02:15:12.196Z,101396.88
2018-07-14T02:17:39.316Z,101394.59
2018-07-14T02:20:06.322Z,101397.72
2018-07-14T02:22:40.480Z,101392.98
2018-07-14T02:25:07.488Z,101395.74
2018-07-14T02:27:34.577Z,101390.22
2018-07-14T02:30:01.605Z,101392.72
2018-07-14T02:32:28.614Z,101399.13
2018-07-14T02:34:55.638Z,101401.85
2018-07-14T02:37:22.725Z,101399.53
2018-07-14T02:39:49.915Z,101400.13
2018-07-14T02:42:16.912Z,101394.61
2018-07-14T02:44:44.057Z,101397.09
2018-07-14T02:47:11.181Z,101392.65
2018-07-14T02:49:38.235Z,101392.27
2018-07-14T02:52:05.544Z,101383.63
2018-07-14T02:54:32.537Z,101386.36
2018-07-14T02:56:59.534Z,101392.07
2018-07-14T02:59:26.573Z,101390.03
2018-07-14T03:01:53.593Z,101382.25
2018-07-14T03:04:20.679Z,101375.98
2018-07-14T03:06:47.791Z,101383.69
2018-07-14T03:09:14.775Z,101382.20
2018-07-14T03:11:41.784Z,101380.78
2018-07-14T03:14:08.804Z,101385.83
2018-07-14T03:16:35.933Z,101390.14
2018-07-14T03:19:02.956Z,101382.17
2018-07-14T03:21:30.014Z,101384.28
2018-07-14T03:23:57.107Z,101390.27
2018-07-14T03:26:24.112Z,101387.00
2018-07-14T03:28:51.117Z,101389.30
2018-07-14T03:31:18.158Z,101392.31
2018-07-14T03:33:45.156Z,101396.36
2018-07-14T03:36:12.173Z,101384.34
2018-07-14T03:38:39.172Z,101394.14
2018-07-14T03:41:06.401Z,101404.97
2018-07-14T03:43:33.404Z,101400.97
2018-07-14T03:46:00.410Z,101391.23
2018-07-14T03:48:27.436Z,101393.75
2018-07-14T03:50:54.452Z,101392.48
2018-07-14T03:53:21.441Z,101393.93
2018-07-14T03:55:48.458Z,101396.59
2018-07-14T03:58:15.428Z,101393.17
2018-07-14T04:00:42.460Z,101390.98
2018-07-14T04:03:09.558Z,101394.64
2018-07-14T04:05:36.693Z,101396.70
2018-07-14T04:08:03.845Z,101392.38
2018-07-14T04:10:30.857Z,101395.95
2018-07-14T04:12:57.886Z,101392.07
2018-07-14T04:15:24.891Z,101395.77
2018-07-14T04:17:56.705Z,101392.48
2018-07-14T04:20:23.716Z,101392.67
2018-07-14T04:22:51.216Z,101394.86
2018-07-14T04:25:18.216Z,101393.58
2018-07-14T04:27:45.242Z,101383.80
2018-07-14T04:30:12.283Z,101387.00
2018-07-14T04:32:39.414Z,101386.78
2018-07-14T04:35:06.438Z,101389.09
2018-07-14T04:37:33.432Z,101383.57
2018-07-14T04:40:00.464Z,101378.60
2018-07-14T04:42:27.570Z,101387.97
2018-07-14T04:44:54.508Z,101386.75
2018-07-14T04:47:21.630Z,101386.75
2018-07-14T04:49:48.745Z,101388.23
2018-07-14T04:52:15.742Z,101385.89
2018-07-14T04:54:42.749Z,101386.78
2018-07-14T04:57:09.856Z,101388.77
2018-07-14T04:59:37.022Z,101390.64
2018-07-14T05:02:04.073Z,101384.41
2018-07-14T05:04:31.082Z,101387.80
2018-07-14T05:06:58.073Z,101391.47
2018-07-14T05:09:25.085Z,101391.33
2018-07-14T05:11:52.151Z,101398.70
2018-07-14T05:14:19.142Z,101395.30
2018-07-14T05:16:46.144Z,101400.84
2018-07-14T05:19:13.148Z,101401.41
2018-07-14T05:21:40.189Z,101394.88
2018-07-14T05:24:07.220Z,101405.02
2018-07-14T05:26:34.223Z,101408.52
2018-07-14T05:29:01.301Z,101406.61
2018-07-14T05:31:28.315Z,101407.53
2018-07-14T05:33:55.425Z,101406.75
2018-07-14T05:36:22.422Z,101409.69
2018-07-14T05:38:49.472Z,101413.72
2018-07-14T05:41:16.470Z,101412.09
2018-07-14T05:43:43.507Z,101406.70
2018-07-14T05:46:10.502Z,101411.70
2018-07-14T05:48:37.500Z,101411.48
2018-07-14T05:51:04.558Z,101412.75
2018-07-14T05:53:31.690Z,101415.38
2018-07-14T05:55:58.717Z,101414.88
2018-07-14T05:58:25.740Z,101423.23
2018-07-14T06:00:52.791Z,101424.28
2018-07-14T06:03:19.938Z,101422.08
2018-07-14T06:05:46.967Z,101422.64
2018-07-14T06:08:14.046Z,101409.10
2018-07-14T06:10:41.153Z,101422.56
2018-07-14T06:13:08.151Z,101426.43
2018-07-14T06:15:35.205Z,101427.67
2018-07-14T06:18:02.351Z,101426.80
2018-07-14T06:20:29.464Z,101427.63
2018-07-14T06:22:56.632Z,101428.73
2018-07-14T06:25:23.816Z,101428.81
2018-07-14T06:27:50.916Z,101431.11
2018-07-14T06:30:17.993Z,101428.63
2018-07-14T06:32:45.119Z,101435.42
2018-07-14T06:35:12.197Z,101438.55
2018-07-14T06:37:39.293Z,101428.42
2018-07-14T06:40:06.372Z,101442.02
2018-07-14T06:42:33.369Z,101441.66
2018-07-14T06:45:00.477Z,101446.30
2018-07-14T06:47:27.899Z,101445.55
2018-07-14T06:49:54.921Z,101442.47
2018-07-14T06:52:21.941Z,101446.21
2018-07-14T06:54:48.993Z,101444.16
2018-07-14T06:57:16.005Z,101448.90
2018-07-14T06:59:43.025Z,101449.46
2018-07-14T07:02:10.080Z,101447.47
2018-07-14T07:04:37.199Z,101454.27
2018-07-14T07:07:04.237Z,101455.48
2018-07-14T07:09:31.320Z,101450.08
2018-07-14T07:11:58.681Z,101450.23
2018-07-14T07:14:25.691Z,101452.30
2018-07-14T07:16:52.840Z,101462.12
2018-07-14T07:19:19.936Z,101452.61
2018-07-14T07:21:46.934Z,101458.64
2018-07-14T07:24:13.979Z,101462.89
2018-07-14T07:26:41.004Z,101461.24
2018-07-14T07:29:08.069Z,101469.62
2018-07-14T07:31:35.097Z,101465.12
2018-07-14T07:34:02.573Z,101468.77
2018-07-14T07:36:30.328Z,101471.63
2018-07-14T07:38:57.791Z,101470.36
2018-07-14T07:41:24.831Z,101468.55
2018-07-14T07:43:51.946Z,101472.42
2018-07-14T07:46:19.029Z,101477.95
2018-07-14T07:48:46.056Z,101480.34
2018-07-14T07:51:15.508Z,101487.45
2018-07-14T07:53:42.688Z,101479.69
2018-07-14T07:56:09.722Z,101483.51
2018-07-14T07:58:36.764Z,101481.76
2018-07-14T08:01:03.828Z,101476.37
2018-07-14T08:03:30.928Z,101478.66
2018-07-14T08:05:57.980Z,101480.79
2018-07-14T08:08:25.077Z,101483.14
2018-07-14T08:10:52.321Z,101478.89
2018-07-14T08:16:00.807Z,101485.38
2018-07-14T08:18:28.541Z,101482.07
2018-07-14T08:20:56.590Z,101483.00
2018-07-14T08:23:23.708Z,101483.92
2018-07-14T08:25:53.209Z,101488.80
2018-07-14T08:28:20.441Z,101490.63
2018-07-14T08:30:47.515Z,101492.20
2018-07-14T08:33:14.619Z,101488.75
2018-07-14T08:35:41.690Z,101493.38
2018-07-14T08:38:08.752Z,101489.17
2018-07-14T08:40:35.880Z,101493.33
2018-07-14T08:43:03.006Z,101496.68
2018-07-14T08:45:30.109Z,101491.39
2018-07-14T08:47:57.220Z,101493.22
2018-07-14T08:50:24.314Z,101487.64
2018-07-14T08:52:51.396Z,101481.59
2018-07-14T08:55:18.500Z,101484.16
2018-07-14T08:57:48.151Z,101483.75
2018-07-14T09:00:15.336Z,101478.44
2018-07-14T09:02:42.373Z,101489.81
2018-07-14T09:05:09.480Z,101486.15
2018-07-14T09:07:36.497Z,101484.22
2018-07-14T09:10:04.165Z,101477.17
2018-07-14T09:12:31.184Z,101484.56
2018-07-14T09:14:58.383Z,101487.79
2018-07-14T09:17:25.401Z,101483.98
2018-07-14T09:19:52.500Z,101491.39
2018-07-14T09:22:19.594Z,101487.84
2018-07-14T09:24:46.679Z,101489.08
2018-07-14T09:27:13.854Z,101492.01
2018-07-14T09:29:40.928Z,101491.00
2018-07-14T09:32:08.051Z,101489.06
2018-07-14T09:34:35.095Z,101486.53
2018-07-14T09:37:02.117Z,101484.48
2018-07-14T09:39:29.316Z,101480.77
2018-07-14T09:41:56.437Z,101483.77
2018-07-14T09:44:23.451Z,101479.95
2018-07-14T09:46:50.460Z,101477.97
2018-07-14T09:49:17.554Z,101484.97
2018-07-14T09:51:44.997Z,101479.55
2018-07-14T09:54:12.006Z,101483.75
2018-07-14T09:56:39.134Z,101485.89
2018-07-14T09:59:06.159Z,101494.33
2018-07-14T10:01:33.216Z,101488.74
2018-07-14T10:04:00.453Z,101488.28
2018-07-14T10:06:27.489Z,101483.20
2018-07-14T10:08:54.729Z,101478.63
2018-07-14T10:11:21.749Z,101483.14
2018-07-14T10:13:48.859Z,101485.23
2018-07-14T10:16:16.021Z,101483.76
2018-07-14T10:18:43.121Z,101467.97
2018-07-14T10:21:10.137Z,101486.84
2018-07-14T10:23:37.325Z,101483.38
2018-07-14T10:26:04.385Z,101485.03
2018-07-14T10:28:31.561Z,101491.84
2018-07-14T10:30:59.183Z,101490.42
2018-07-14T10:33:26.374Z,101489.78
2018-07-14T10:35:53.389Z,101487.73
2018-07-14T10:38:20.493Z,101491.94
2018-07-14T10:40:47.717Z,101489.95
2018-07-14T10:43:14.733Z,101488.38
2018-07-14T10:45:41.795Z,101488.70
2018-07-14T10:48:08.784Z,101487.57
2018-07-14T10:50:35.819Z,101483.94
2018-07-14T10:53:09.832Z,101484.02
2018-07-14T10:55:36.854Z,101479.89
2018-07-14T10:58:03.937Z,101484.68
2018-07-14T11:00:31.075Z,101487.50
2018-07-14T11:02:58.471Z,101485.63
2018-07-14T11:05:25.486Z,101484.87
2018-07-14T11:07:52.656Z,101479.28
2018-07-14T11:10:19.689Z,101483.41
2018-07-14T11:12:46.698Z,101481.84
2018-07-14T11:15:13.845Z,101471.48
2018-07-14T11:17:41.051Z,101477.34
2018-07-14T11:20:08.129Z,101470.41
2018-07-14T11:22:35.177Z,101469.44
2018-07-14T11:25:02.286Z,101464.86
2018-07-14T11:27:29.498Z,101460.92
2018-07-14T11:29:56.572Z,101464.47
2018-07-14T11:32:23.960Z,101460.25
2018-07-14T11:34:50.990Z,101460.90
2018-07-14T11:37:18.096Z,101460.75
2018-07-14T11:39:45.203Z,101460.87
2018-07-14T11:42:12.330Z,101456.48
2018-07-14T11:44:39.364Z,101467.16
2018-07-14T11:47:06.474Z,101459.91
2018-07-14T11:49:33.593Z,101462.20
2018-07-14T11:52:01.052Z,101462.39
2018-07-14T11:54:28.248Z,101454.34
2018-07-14T11:56:55.343Z,101457.84
2018-07-14T11:59:22.596Z,101457.11
2018-07-14T12:01:49.685Z,101450.31
2018-07-14T12:04:17.122Z,101446.25
2018-07-14T12:06:44.129Z,101454.84
2018-07-14T12:09:11.145Z,101443.66
2018-07-14T12:11:38.253Z,101448.48
2018-07-14T12:14:05.412Z,101441.88
2018-07-14T12:16:32.617Z,101444.92
2018-07-14T12:18:59.677Z,101444.25
2018-07-14T12:21:26.780Z,101436.02
2018-07-14T12:23:53.804Z,101434.98
2018-07-14T12:26:20.976Z,101432.68
2018-07-14T12:28:48.009Z,101428.16
2018-07-14T12:31:15.116Z,101422.22
2018-07-14T12:33:42.397Z,101421.31
2018-07-14T12:36:09.840Z,101416.41
2018-07-14T12:38:36.986Z,101419.83
2018-07-14T12:41:04.120Z,101417.86
2018-07-14T12:43:31.332Z,101419.06
2018-07-14T12:45:58.353Z,101424.52
2018-07-14T12:48:25.449Z,101415.61
2018-07-14T12:50:52.589Z,101417.25
2018-07-14T12:53:19.756Z,101413.44
2018-07-14T12:55:46.810Z,101412.00
2018-07-14T12:58:13.920Z,101407.20
2018-07-14T13:00:40.977Z,101408.59
2018-07-14T13:03:08.036Z,101408.84
2018-07-14T13:05:35.149Z,101409.53
2018-07-14T13:08:02.293Z,101403.72
2018-07-14T13:10:29.336Z,101401.95
2018-07-14T13:12:56.412Z,101396.52
2018-07-14T13:15:23.529Z,101401.31
2018-07-14T13:17:50.888Z,101395.87
2018-07-14T13:20:17.937Z,101399.76
2018-07-14T13:22:44.957Z,101394.59
2018-07-14T13:25:12.071Z,101395.64
2018-07-14T13:27:39.084Z,101396.80
2018-07-14T13:30:06.248Z,101396.80
2018-07-14T13:32:33.474Z,101390.53
2018-07-14T13:35:00.634Z,101392.98
2018-07-14T13:37:27.650Z,101390.53
2018-07-14T13:39:54.704Z,101393.20
2018-07-14T13:42:21.753Z,101391.09
2018-07-14T13:44:48.816Z,101390.72
2018-07-14T13:47:15.828Z,101393.64
2018-07-14T13:49:42.853Z,101398.41
2018-07-14T13:52:09.979Z,101387.91
2018-07-14T13:54:37.045Z,101383.88
2018-07-14T13:57:04.148Z,101378.28
2018-07-14T13:59:31.250Z,101379.73
2018-07-14T14:01:58.343Z,101381.53
2018-07-14T14:04:25.393Z,101371.35
2018-07-14T14:06:52.510Z,101369.73
2018-07-14T14:09:19.616Z,101366.89
2018-07-14T14:11:46.664Z,101368.84
2018-07-14T14:14:13.723Z,101360.05
2018-07-14T14:16:40.738Z,101360.80
2018-07-14T14:19:07.854Z,101362.78
2018-07-14T14:21:34.889Z,101352.59
2018-07-14T14:24:01.982Z,101348.94
2018-07-14T14:26:29.079Z,101348.72
2018-07-14T14:28:56.272Z,101343.43
2018-07-14T14:31:23.465Z,101349.30
2018-07-14T14:33:50.700Z,101336.31
2018-07-14T14:36:17.739Z,101340.02
2018-07-14T14:38:44.762Z,101342.52
2018-07-14T14:41:11.957Z,101338.11
2018-07-14T14:43:39.037Z,101332.86
2018-07-14T14:46:06.120Z,101332.53
2018-07-14T14:48:33.320Z,101329.33
2018-07-14T14:51:00.377Z,101324.20
2018-07-14T14:53:27.492Z,101322.66
2018-07-14T14:55:54.625Z,101324.46
2018-07-14T14:58:21.666Z,101326.92
2018-07-14T15:00:48.699Z,101327.98
2018-07-14T15:03:15.812Z,101323.64
2018-07-14T15:05:42.917Z,101321.13
2018-07-14T15:08:10.022Z,101322.26
2018-07-14T15:10:37.111Z,101320.44
2018-07-14T15:13:04.314Z,101321.99
2018-07-14T15:15:31.365Z,101317.09
2018-07-14T15:17:58.467Z,101320.41
2018-07-14T15:20:25.591Z,101319.75
2018-07-14T15:22:52.709Z,101318.29
2018-07-14T15:25:19.773Z,101311.05
2018-07-14T15:27:46.773Z,101317.91
2018-07-14T15:30:13.797Z,101311.44
2018-07-14T15:32:41.056Z,101319.59
2018-07-14T15:35:08.182Z,101314.91
2018-07-14T15:37:35.261Z,101318.47
2018-07-14T15:40:02.308Z,101310.99
2018-07-14T15:42:29.621Z,101300.70
2018-07-14T15:44:56.637Z,101312.80
2018-07-14T15:47:23.856Z,101314.78
2018-07-14T15:49:50.865Z,101313.96
2018-07-14T15:52:18.022Z,101314.78
2018-07-14T15:54:45.101Z,101313.86
2018-07-14T15:57:12.162Z,101317.19
2018-07-14T15:59:39.265Z,101315.91
2018-07-14T16:02:06.305Z,101321.08
2018-07-14T16:04:33.503Z,101319.75
2018-07-14T16:07:00.588Z,101314.25
2018-07-14T16:09:27.662Z,101313.78
2018-07-14T16:11:54.764Z,101310.59
2018-07-14T16:14:21.864Z,101313.05
2018-07-14T16:16:48.893Z,101312.75
2018-07-14T16:19:16.000Z,101311.53
2018-07-14T16:21:43.184Z,101313.22
2018-07-14T16:24:10.285Z,101317.36
2018-07-14T16:26:37.375Z,101321.34
2018-07-14T16:29:04.376Z,101314.53
2018-07-14T16:31:31.421Z,101311.08
2018-07-14T16:33:58.533Z,101316.95
2018-07-14T16:36:25.633Z,101320.16
2018-07-14T16:38:52.693Z,101318.14
2018-07-14T16:41:19.843Z,101311.17
2018-07-14T16:43:46.964Z,101314.48
2018-07-14T16:46:13.972Z,101315.92
2018-07-14T16:48:41.095Z,101307.52
2018-07-14T16:51:08.204Z,101307.34
2018-07-14T16:53:35.237Z,101302.72
2018-07-14T16:56:02.300Z,101300.98
2018-07-14T16:58:29.433Z,101297.48
2018-07-14T17:00:56.481Z,101302.27
2018-07-14T17:03:23.570Z,101293.38
2018-07-14T17:05:50.596Z,101293.77
2018-07-14T17:08:17.977Z,101298.08
2018-07-14T17:10:45.095Z,101293.77
2018-07-14T17:13:12.130Z,101293.97
2018-07-14T17:23:36.160Z,101305.30
2018-07-14T17:29:58.311Z,101301.00
2018-07-14T17:32:25.385Z,101302.13
2018-07-14T17:34:52.478Z,101298.98
2018-07-14T17:37:19.641Z,101298.47
2018-07-14T17:39:46.646Z,101296.72
2018-07-14T17:42:13.672Z,101301.69
2018-07-14T17:44:40.715Z,101290.16
2018-07-14T17:47:07.709Z,101293.69
2018-07-14T17:49:34.916Z,101296.52
2018-07-14T17:52:02.111Z,101293.82
2018-07-14T17:54:29.057Z,101289.91
2018-07-14T17:56:56.326Z,101284.83
2018-07-14T17:59:23.528Z,101288.52
2018-07-14T18:01:50.656Z,101283.55
2018-07-14T18:04:17.788Z,101287.01
2018-07-14T18:06:44.901Z,101283.89
2018-07-14T18:09:11.901Z,101286.89
2018-07-14T18:11:39.077Z,101284.58
2018-07-14T18:14:06.096Z,101282.75
2018-07-14T18:16:33.233Z,101281.64
2018-07-14T18:19:00.255Z,101278.48
2018-07-14T18:21:27.266Z,101279.21
2018-07-14T18:23:54.977Z,101274.30
2018-07-14T18:26:22.085Z,101280.03
2018-07-14T18:28:49.177Z,101282.98
2018-07-14T18:31:16.606Z,101280.16
2018-07-14T18:33:43.640Z,101280.78
2018-07-14T18:36:10.904Z,101282.13
2018-07-14T18:38:37.993Z,101283.61
2018-07-14T18:41:05.106Z,101283.32
2018-07-14T18:43:32.268Z,101279.25
2018-07-14T18:45:59.331Z,101283.20
2018-07-14T18:48:26.579Z,101279.25
2018-07-14T18:50:54.013Z,101280.00
2018-07-14T18:53:21.158Z,101281.30
2018-07-14T18:55:48.381Z,101281.63
2018-07-14T18:58:15.594Z,101285.06
2018-07-14T19:00:42.685Z,101283.79
2018-07-14T19:03:10.082Z,101286.16
2018-07-14T19:05:37.322Z,101290.02
2018-07-14T19:08:05.324Z,101288.85
2018-07-14T19:10:32.408Z,101291.95
2018-07-14T19:12:59.464Z,101295.86
2018-07-14T19:15:26.526Z,101301.66
2018-07-14T19:17:53.681Z,101303.67
2018-07-14T19:20:20.757Z,101291.98
2018-07-14T19:22:47.880Z,101310.16
2018-07-14T19:25:14.977Z,101307.09
2018-07-14T19:27:42.191Z,101307.05
2018-07-14T19:30:09.146Z,101314.61
2018-07-14T19:32:38.545Z,101302.42
2018-07-14T19:35:05.977Z,101303.97
2018-07-14T19:37:33.058Z,101307.09
2018-07-14T19:40:00.156Z,101307.45
2018-07-14T19:42:27.373Z,101301.07
2018-07-14T19:44:54.493Z,101301.63
2018-07-14T19:47:21.936Z,101309.56
2018-07-14T19:49:49.608Z,101307.00
2018-07-14T19:52:17.062Z,101306.46
2018-07-14T19:54:44.199Z,101301.56
2018-07-14T19:57:11.795Z,101302.83
2018-07-14T19:59:39.328Z,101301.56
2018-07-14T20:02:07.291Z,101299.72
2018-07-14T20:04:34.597Z,101306.11
2018-07-14T20:07:01.923Z,101301.89
2018-07-14T20:09:29.394Z,101301.53
2018-07-14T20:11:56.494Z,101298.43
2018-07-14T20:14:23.621Z,101302.34
2018-07-14T20:16:50.744Z,101304.61
2018-07-14T20:19:24.747Z,101298.79
2018-07-14T20:21:51.917Z,101312.13
2018-07-14T20:24:19.005Z,101312.20
2018-07-14T20:26:47.464Z,101310.25
2018-07-14T20:29:14.721Z,101310.63
2018-07-14T20:31:41.894Z,101311.92
2018-07-14T20:34:09.065Z,101312.33
2018-07-14T20:36:36.112Z,101309.11
2018-07-14T20:39:03.995Z,101312.25
2018-07-14T20:41:31.255Z,101308.39
2018-07-14T20:43:58.278Z,101308.02
2018-07-14T20:46:25.712Z,101316.81
2018-07-14T20:48:52.847Z,101310.20
2018-07-14T20:51:20.224Z,101309.39
2018-07-14T20:53:47.423Z,101310.88
2018-07-14T20:56:14.597Z,101312.33
2018-07-14T20:58:41.705Z,101313.83
2018-07-14T21:01:08.951Z,101310.97
2018-07-14T21:03:36.245Z,101318.23
2018-07-14T21:06:03.382Z,101310.31
2018-07-14T21:08:30.537Z,101313.12
2018-07-14T21:10:57.620Z,101318.09
2018-07-14T21:13:24.715Z,101319.73
2018-07-14T21:15:51.813Z,101313.52
2018-07-14T21:18:18.882Z,101317.98
2018-07-14T21:20:46.046Z,101314.31
2018-07-14T21:23:13.017Z,101312.05
2018-07-14T21:25:40.167Z,101313.84
2018-07-14T21:28:07.333Z,101309.92
2018-07-14T21:30:34.469Z,101307.98
2018-07-14T21:33:01.618Z,101312.73
2018-07-14T21:35:29.590Z,101309.69
2018-07-14T21:37:58.757Z,101310.38
2018-07-14T21:40:27.538Z,101311.89
2018-07-14T21:42:56.267Z,101321.02
2018-07-14T21:45:24.343Z,101320.18
2018-07-14T21:47:52.044Z,101319.89
2018-07-14T21:50:21.214Z,101323.28
2018-07-14T21:52:48.944Z,101326.05
2018-07-14T21:55:16.107Z,101320.42
2018-07-14T21:57:43.928Z,101320.88
2018-07-14T22:00:21.343Z,101322.16
2018-07-14T22:02:49.298Z,101322.68
2018-07-14T22:05:16.388Z,101314.98
2018-07-14T22:07:43.702Z,101325.96
2018-07-14T22:10:11.660Z,101327.12
2018-07-14T22:12:38.830Z,101322.04
2018-07-14T22:15:05.989Z,101318.92
2018-07-14T22:17:33.098Z,101320.27
2018-07-14T22:20:01.570Z,101321.70
2018-07-14T22:22:28.766Z,101320.84
2018-07-14T22:24:55.853Z,101319.59
2018-07-14T22:27:22.962Z,101319.02
2018-07-14T22:29:50.098Z,101315.16
2018-07-14T22:32:17.249Z,101315.83
2018-07-14T22:34:44.321Z,101317.77
2018-07-14T22:37:11.382Z,101320.30
2018-07-14T22:39:38.521Z,101315.41
2018-07-14T22:42:05.619Z,101315.45
2018-07-14T22:44:32.697Z,101310.95
2018-07-14T22:46:59.778Z,101318.31
2018-07-14T22:49:26.946Z,101309.03
2018-07-14T22:51:54.041Z,101313.58
2018-07-14T22:54:21.236Z,101308.83
2018-07-14T22:56:48.381Z,101321.02
2018-07-14T22:59:15.501Z,101312.31
2018-07-14T23:01:42.573Z,101314.06
2018-07-14T23:04:09.633Z,101314.73
2018-07-14T23:06:36.718Z,101314.65
2018-07-14T23:09:05.941Z,101314.45
2018-07-14T23:11:33.058Z,101312.23
2018-07-14T23:14:00.172Z,101311.92
2018-07-14T23:16:27.269Z,101309.81
2018-07-14T23:18:54.376Z,101310.67
2018-07-14T23:21:21.521Z,101312.72
2018-07-14T23:23:48.623Z,101313.39
2018-07-14T23:26:15.726Z,101313.85
2018-07-14T23:28:42.804Z,101316.40
2018-07-14T23:31:09.937Z,101312.22
2018-07-14T23:33:37.014Z,101312.02
2018-07-14T23:36:04.723Z,101309.70
2018-07-14T23:38:31.831Z,101306.58
2018-07-14T23:40:58.820Z,101307.54
2018-07-14T23:43:26.163Z,101313.73
2018-07-14T23:45:53.309Z,101308.80
2018-07-14T23:48:20.392Z,101296.89
2018-07-14T23:50:47.533Z,101301.14
2018-07-14T23:53:15.119Z,101295.62
2018-07-14T23:55:42.243Z,101294.34
2018-07-14T23:58:09.338Z,101292.22
